sensor_id;sensor_type;location;lat;lon;timestamp;temperature;humidity
45837;DHT22;31548;51.420;-0.040;2023-06-26T00:01:42;18.70;99.90
45837;DHT22;31548;51.420;-0.040;2023-06-26T00:04:10;18.60;99.90
45837;DHT22;31548;51.420;-0.040;2023-06-26T00:06:42;18.50;99.90
45837;DHT22;31548;51.420;-0.040;2023-06-26T00:09:09;18.50;99.90
45837;DHT22;31548;51.420;-0.040;2023-06-26T00:11:36;18.40;99.90
45837;DHT22;31548;51.420;-0.040;2023-06-26T00:14:04;18.40;99.90
45837;DHT22;31548;51.420;-0.040;2023-06-26T00:16:31;18.50;99.90
45837;DHT22;31548;51.420;-0.040;2023-06-26T00:18:59;18.30;99.90
45837;DHT22;31548;51.420;-0.040;2023-06-26T00:21:26;18.30;99.90
45837;DHT22;31548;51.420;-0.040;2023-06-26T00:23:54;18.40;99.90
45837;DHT22;31548;51.420;-0.040;2023-06-26T00:26:21;18.40;99.90
45837;DHT22;31548;51.420;-0.040;2023-06-26T00:28:49;18.30;99.90
45837;DHT22;31548;51.420;-0.040;2023-06-26T00:31:16;18.30;99.90
45837;DHT22;31548;51.420;-0.040;2023-06-26T00:33:43;18.30;99.90
45837;DHT22;31548;51.420;-0.040;2023-06-26T00:36:11;18.30;99.90
45837;DHT22;31548;51.420;-0.040;2023-06-26T00:38:38;18.30;99.90
45837;DHT22;31548;51.420;-0.040;2023-06-26T00:41:05;18.20;99.90
45837;DHT22;31548;51.420;-0.040;2023-06-26T00:43:40;18.10;99.90
45837;DHT22;31548;51.420;-0.040;2023-06-26T00:46:12;18.10;99.90
45837;DHT22;31548;51.420;-0.040;2023-06-26T00:48:43;18.10;99.90
45837;DHT22;31548;51.420;-0.040;2023-06-26T00:51:13;18.20;99.90
45837;DHT22;31548;51.420;-0.040;2023-06-26T00:53:40;18.10;99.90
45837;DHT22;31548;51.420;-0.040;2023-06-26T00:56:08;18.00;99.90
45837;DHT22;31548;51.420;-0.040;2023-06-26T00:58:36;18.00;99.90
45837;DHT22;31548;51.420;-0.040;2023-06-26T01:01:04;18.00;99.90
45837;DHT22;31548;51.420;-0.040;2023-06-26T01:03:33;17.90;99.90
45837;DHT22;31548;51.420;-0.040;2023-06-26T01:06:01;18.00;99.90
45837;DHT22;31548;51.420;-0.040;2023-06-26T01:08:31;18.00;99.90
45837;DHT22;31548;51.420;-0.040;2023-06-26T01:10:59;18.00;99.90
45837;DHT22;31548;51.420;-0.040;2023-06-26T01:13:28;17.90;99.90
45837;DHT22;31548;51.420;-0.040;2023-06-26T01:15:57;17.90;99.90
45837;DHT22;31548;51.420;-0.040;2023-06-26T01:18:26;17.80;99.90
45837;DHT22;31548;51.420;-0.040;2023-06-26T01:20:53;17.70;99.90
45837;DHT22;31548;51.420;-0.040;2023-06-26T01:23:35;17.80;99.90
45837;DHT22;31548;51.420;-0.040;2023-06-26T01:28:35;17.80;99.90
45837;DHT22;31548;51.420;-0.040;2023-06-26T01:31:05;17.80;99.90
45837;DHT22;31548;51.420;-0.040;2023-06-26T01:33:33;17.70;99.90
45837;DHT22;31548;51.420;-0.040;2023-06-26T01:36:01;17.70;99.90
45837;DHT22;31548;51.420;-0.040;2023-06-26T01:38:29;17.60;99.90
45837;DHT22;31548;51.420;-0.040;2023-06-26T01:40:56;17.60;99.90
45837;DHT22;31548;51.420;-0.040;2023-06-26T01:46:51;17.50;99.90
45837;DHT22;31548;51.420;-0.040;2023-06-26T01:49:46;17.50;99.90
45837;DHT22;31548;51.420;-0.040;2023-06-26T01:55:15;17.30;99.90
45837;DHT22;31548;51.420;-0.040;2023-06-26T01:57:47;17.30;99.90
45837;DHT22;31548;51.420;-0.040;2023-06-26T02:00:16;17.30;99.90
45837;DHT22;31548;51.420;-0.040;2023-06-26T02:02:46;17.30;99.90
45837;DHT22;31548;51.420;-0.040;2023-06-26T02:05:14;17.30;99.90
45837;DHT22;31548;51.420;-0.040;2023-06-26T02:07:42;17.30;99.90
45837;DHT22;31548;51.420;-0.040;2023-06-26T02:10:10;17.30;99.90
45837;DHT22;31548;51.420;-0.040;2023-06-26T02:12:38;17.30;99.90
45837;DHT22;31548;51.420;-0.040;2023-06-26T02:15:06;17.20;99.90
45837;DHT22;31548;51.420;-0.040;2023-06-26T02:17:34;17.20;99.90
45837;DHT22;31548;51.420;-0.040;2023-06-26T02:20:01;17.20;99.90
45837;DHT22;31548;51.420;-0.040;2023-06-26T02:22:29;17.10;99.90
45837;DHT22;31548;51.420;-0.040;2023-06-26T02:24:57;17.20;99.90
45837;DHT22;31548;51.420;-0.040;2023-06-26T02:27:25;17.10;99.90
45837;DHT22;31548;51.420;-0.040;2023-06-26T02:29:53;17.10;99.90
45837;DHT22;31548;51.420;-0.040;2023-06-26T02:32:20;17.10;99.90
45837;DHT22;31548;51.420;-0.040;2023-06-26T02:34:49;17.10;99.90
45837;DHT22;31548;51.420;-0.040;2023-06-26T02:37:19;17.10;99.90
45837;DHT22;31548;51.420;-0.040;2023-06-26T02:39:47;17.20;99.90
45837;DHT22;31548;51.420;-0.040;2023-06-26T02:42:14;17.00;99.90
45837;DHT22;31548;51.420;-0.040;2023-06-26T02:44:41;16.90;99.90
45837;DHT22;31548;51.420;-0.040;2023-06-26T02:47:09;16.90;99.90
45837;DHT22;31548;51.420;-0.040;2023-06-26T02:49:40;16.90;99.90
45837;DHT22;31548;51.420;-0.040;2023-06-26T02:52:08;16.90;99.90
45837;DHT22;31548;51.420;-0.040;2023-06-26T02:54:35;16.90;99.90
45837;DHT22;31548;51.420;-0.040;2023-06-26T02:57:04;16.80;99.90
45837;DHT22;31548;51.420;-0.040;2023-06-26T02:59:34;16.80;99.90
45837;DHT22;31548;51.420;-0.040;2023-06-26T03:02:02;16.70;99.90
45837;DHT22;31548;51.420;-0.040;2023-06-26T03:04:49;16.70;99.90
45837;DHT22;31548;51.420;-0.040;2023-06-26T03:07:17;16.70;99.90
45837;DHT22;31548;51.420;-0.040;2023-06-26T03:09:44;16.60;99.90
45837;DHT22;31548;51.420;-0.040;2023-06-26T03:12:12;16.60;99.90
45837;DHT22;31548;51.420;-0.040;2023-06-26T03:14:39;16.60;99.90
45837;DHT22;31548;51.420;-0.040;2023-06-26T03:17:07;16.60;99.90
45837;DHT22;31548;51.420;-0.040;2023-06-26T03:19:36;16.50;99.90
45837;DHT22;31548;51.420;-0.040;2023-06-26T03:22:17;16.50;99.90
45837;DHT22;31548;51.420;-0.040;2023-06-26T03:24:45;16.50;99.90
45837;DHT22;31548;51.420;-0.040;2023-06-26T03:27:13;16.50;99.90
45837;DHT22;31548;51.420;-0.040;2023-06-26T03:29:43;16.40;99.90
45837;DHT22;31548;51.420;-0.040;2023-06-26T03:32:11;16.40;99.90
45837;DHT22;31548;51.420;-0.040;2023-06-26T03:34:39;16.30;99.90
45837;DHT22;31548;51.420;-0.040;2023-06-26T03:37:06;16.40;99.90
45837;DHT22;31548;51.420;-0.040;2023-06-26T03:39:34;16.30;99.90
45837;DHT22;31548;51.420;-0.040;2023-06-26T03:42:02;16.30;99.90
45837;DHT22;31548;51.420;-0.040;2023-06-26T03:44:29;16.20;99.90
45837;DHT22;31548;51.420;-0.040;2023-06-26T03:46:57;16.20;99.90
45837;DHT22;31548;51.420;-0.040;2023-06-26T03:49:24;16.20;99.90
45837;DHT22;31548;51.420;-0.040;2023-06-26T03:51:52;16.10;99.90
45837;DHT22;31548;51.420;-0.040;2023-06-26T03:54:21;16.10;99.90
45837;DHT22;31548;51.420;-0.040;2023-06-26T03:56:48;16.10;99.90
45837;DHT22;31548;51.420;-0.040;2023-06-26T03:59:16;16.20;99.90
45837;DHT22;31548;51.420;-0.040;2023-06-26T04:01:43;16.20;99.90
45837;DHT22;31548;51.420;-0.040;2023-06-26T04:04:10;16.20;99.90
45837;DHT22;31548;51.420;-0.040;2023-06-26T04:06:38;16.10;99.90
45837;DHT22;31548;51.420;-0.040;2023-06-26T04:09:05;16.10;99.90
45837;DHT22;31548;51.420;-0.040;2023-06-26T04:11:32;16.10;99.90
45837;DHT22;31548;51.420;-0.040;2023-06-26T04:13:59;16.10;99.90
45837;DHT22;31548;51.420;-0.040;2023-06-26T04:16:27;16.10;99.90
45837;DHT22;31548;51.420;-0.040;2023-06-26T04:18:54;16.00;99.90
45837;DHT22;31548;51.420;-0.040;2023-06-26T04:21:23;16.00;99.90
45837;DHT22;31548;51.420;-0.040;2023-06-26T04:23:53;15.90;99.90
45837;DHT22;31548;51.420;-0.040;2023-06-26T04:26:21;15.90;99.90
45837;DHT22;31548;51.420;-0.040;2023-06-26T04:28:48;15.90;99.90
45837;DHT22;31548;51.420;-0.040;2023-06-26T04:31:15;15.90;99.90
45837;DHT22;31548;51.420;-0.040;2023-06-26T04:33:43;16.00;99.90
45837;DHT22;31548;51.420;-0.040;2023-06-26T04:36:10;16.00;99.90
45837;DHT22;31548;51.420;-0.040;2023-06-26T04:38:38;16.00;99.90
45837;DHT22;31548;51.420;-0.040;2023-06-26T04:41:05;16.00;99.90
45837;DHT22;31548;51.420;-0.040;2023-06-26T04:43:33;16.00;99.90
45837;DHT22;31548;51.420;-0.040;2023-06-26T04:46:01;16.00;99.90
45837;DHT22;31548;51.420;-0.040;2023-06-26T04:48:29;16.00;99.90
45837;DHT22;31548;51.420;-0.040;2023-06-26T04:50:58;16.00;99.90
45837;DHT22;31548;51.420;-0.040;2023-06-26T04:53:26;16.00;99.90
45837;DHT22;31548;51.420;-0.040;2023-06-26T04:55:53;16.10;99.90
45837;DHT22;31548;51.420;-0.040;2023-06-26T04:58:21;16.10;99.90
45837;DHT22;31548;51.420;-0.040;2023-06-26T05:00:48;16.10;99.90
45837;DHT22;31548;51.420;-0.040;2023-06-26T05:03:16;16.10;99.90
45837;DHT22;31548;51.420;-0.040;2023-06-26T05:05:45;16.10;99.90
45837;DHT22;31548;51.420;-0.040;2023-06-26T05:08:25;16.20;99.90
45837;DHT22;31548;51.420;-0.040;2023-06-26T05:10:55;16.10;99.90
45837;DHT22;31548;51.420;-0.040;2023-06-26T05:13:26;16.10;99.90
45837;DHT22;31548;51.420;-0.040;2023-06-26T05:15:53;16.10;99.90
45837;DHT22;31548;51.420;-0.040;2023-06-26T05:18:20;16.10;99.90
45837;DHT22;31548;51.420;-0.040;2023-06-26T05:20:48;16.20;99.90
45837;DHT22;31548;51.420;-0.040;2023-06-26T05:23:16;16.20;99.90
45837;DHT22;31548;51.420;-0.040;2023-06-26T05:25:44;16.20;99.90
45837;DHT22;31548;51.420;-0.040;2023-06-26T05:28:11;16.20;99.90
45837;DHT22;31548;51.420;-0.040;2023-06-26T05:30:39;16.20;99.90
45837;DHT22;31548;51.420;-0.040;2023-06-26T05:33:10;16.20;99.90
45837;DHT22;31548;51.420;-0.040;2023-06-26T05:35:37;16.30;99.90
45837;DHT22;31548;51.420;-0.040;2023-06-26T05:38:05;16.30;99.90
45837;DHT22;31548;51.420;-0.040;2023-06-26T05:40:33;16.40;99.90
45837;DHT22;31548;51.420;-0.040;2023-06-26T05:43:02;16.40;99.90
45837;DHT22;31548;51.420;-0.040;2023-06-26T05:45:30;16.40;99.90
45837;DHT22;31548;51.420;-0.040;2023-06-26T05:47:57;16.40;99.90
45837;DHT22;31548;51.420;-0.040;2023-06-26T05:50:25;16.40;99.90
45837;DHT22;31548;51.420;-0.040;2023-06-26T05:52:53;16.40;99.90
45837;DHT22;31548;51.420;-0.040;2023-06-26T05:55:21;16.50;99.90
45837;DHT22;31548;51.420;-0.040;2023-06-26T05:57:50;16.50;99.90
45837;DHT22;31548;51.420;-0.040;2023-06-26T06:00:18;16.50;99.90
45837;DHT22;31548;51.420;-0.040;2023-06-26T06:02:45;16.50;99.90
45837;DHT22;31548;51.420;-0.040;2023-06-26T06:05:12;16.70;99.90
45837;DHT22;31548;51.420;-0.040;2023-06-26T06:07:40;16.70;99.90
45837;DHT22;31548;51.420;-0.040;2023-06-26T06:10:07;16.70;99.90
45837;DHT22;31548;51.420;-0.040;2023-06-26T06:12:35;16.70;99.90
45837;DHT22;31548;51.420;-0.040;2023-06-26T06:15:02;16.80;99.90
45837;DHT22;31548;51.420;-0.040;2023-06-26T06:17:30;16.80;99.90
45837;DHT22;31548;51.420;-0.040;2023-06-26T06:19:57;16.90;99.90
45837;DHT22;31548;51.420;-0.040;2023-06-26T06:22:24;17.00;99.90
45837;DHT22;31548;51.420;-0.040;2023-06-26T06:24:52;17.00;99.90
45837;DHT22;31548;51.420;-0.040;2023-06-26T06:27:19;17.10;99.90
45837;DHT22;31548;51.420;-0.040;2023-06-26T06:29:46;17.20;99.90
45837;DHT22;31548;51.420;-0.040;2023-06-26T06:32:13;17.40;99.90
45837;DHT22;31548;51.420;-0.040;2023-06-26T06:34:41;17.40;99.90
45837;DHT22;31548;51.420;-0.040;2023-06-26T06:37:08;17.40;99.90
45837;DHT22;31548;51.420;-0.040;2023-06-26T06:39:36;17.40;99.90
45837;DHT22;31548;51.420;-0.040;2023-06-26T06:42:03;17.40;99.90
45837;DHT22;31548;51.420;-0.040;2023-06-26T06:44:31;17.40;99.90
45837;DHT22;31548;51.420;-0.040;2023-06-26T06:46:58;17.30;99.90
45837;DHT22;31548;51.420;-0.040;2023-06-26T06:49:25;17.30;99.90
45837;DHT22;31548;51.420;-0.040;2023-06-26T06:51:53;17.30;99.90
45837;DHT22;31548;51.420;-0.040;2023-06-26T06:54:20;17.40;99.90
45837;DHT22;31548;51.420;-0.040;2023-06-26T06:56:47;17.40;99.90
45837;DHT22;31548;51.420;-0.040;2023-06-26T06:59:14;17.50;99.90
45837;DHT22;31548;51.420;-0.040;2023-06-26T07:01:42;17.50;99.90
45837;DHT22;31548;51.420;-0.040;2023-06-26T07:04:09;17.50;99.90
45837;DHT22;31548;51.420;-0.040;2023-06-26T07:06:37;17.50;99.90
45837;DHT22;31548;51.420;-0.040;2023-06-26T07:09:04;17.50;99.90
45837;DHT22;31548;51.420;-0.040;2023-06-26T07:11:32;17.60;99.90
45837;DHT22;31548;51.420;-0.040;2023-06-26T07:14:00;17.60;99.90
45837;DHT22;31548;51.420;-0.040;2023-06-26T07:16:27;17.60;99.90
45837;DHT22;31548;51.420;-0.040;2023-06-26T07:18:54;17.70;99.90
45837;DHT22;31548;51.420;-0.040;2023-06-26T07:21:22;17.90;99.90
45837;DHT22;31548;51.420;-0.040;2023-06-26T07:23:52;17.90;99.90
45837;DHT22;31548;51.420;-0.040;2023-06-26T07:26:19;17.90;99.90
45837;DHT22;31548;51.420;-0.040;2023-06-26T07:29:08;18.00;99.90
45837;DHT22;31548;51.420;-0.040;2023-06-26T07:31:36;18.20;99.90
45837;DHT22;31548;51.420;-0.040;2023-06-26T07:34:03;18.30;99.90
45837;DHT22;31548;51.420;-0.040;2023-06-26T07:36:30;18.30;99.90
45837;DHT22;31548;51.420;-0.040;2023-06-26T07:38:58;18.50;99.90
45837;DHT22;31548;51.420;-0.040;2023-06-26T07:41:25;18.60;99.90
45837;DHT22;31548;51.420;-0.040;2023-06-26T07:43:52;18.60;99.90
45837;DHT22;31548;51.420;-0.040;2023-06-26T07:46:20;18.70;99.90
45837;DHT22;31548;51.420;-0.040;2023-06-26T07:48:47;18.70;99.90
45837;DHT22;31548;51.420;-0.040;2023-06-26T07:51:14;18.80;99.90
45837;DHT22;31548;51.420;-0.040;2023-06-26T07:53:42;18.70;99.90
45837;DHT22;31548;51.420;-0.040;2023-06-26T07:56:10;18.90;99.90
45837;DHT22;31548;51.420;-0.040;2023-06-26T07:58:37;19.00;99.90
45837;DHT22;31548;51.420;-0.040;2023-06-26T08:01:05;19.00;99.90
45837;DHT22;31548;51.420;-0.040;2023-06-26T08:03:33;19.20;99.90
45837;DHT22;31548;51.420;-0.040;2023-06-26T08:06:02;19.10;99.90
45837;DHT22;31548;51.420;-0.040;2023-06-26T08:08:30;19.20;99.90
45837;DHT22;31548;51.420;-0.040;2023-06-26T08:10:57;19.10;99.90
45837;DHT22;31548;51.420;-0.040;2023-06-26T08:13:25;19.20;99.90
45837;DHT22;31548;51.420;-0.040;2023-06-26T08:15:52;19.50;99.90
45837;DHT22;31548;51.420;-0.040;2023-06-26T08:18:20;19.60;99.90
45837;DHT22;31548;51.420;-0.040;2023-06-26T08:20:47;19.70;99.90
45837;DHT22;31548;51.420;-0.040;2023-06-26T08:23:14;19.60;99.90
45837;DHT22;31548;51.420;-0.040;2023-06-26T08:25:41;19.60;99.90
45837;DHT22;31548;51.420;-0.040;2023-06-26T08:28:09;19.60;99.90
45837;DHT22;31548;51.420;-0.040;2023-06-26T08:30:36;19.50;99.90
45837;DHT22;31548;51.420;-0.040;2023-06-26T08:33:04;19.70;99.90
45837;DHT22;31548;51.420;-0.040;2023-06-26T08:35:31;19.80;99.90
45837;DHT22;31548;51.420;-0.040;2023-06-26T08:37:59;19.80;99.90
45837;DHT22;31548;51.420;-0.040;2023-06-26T08:40:26;19.80;99.90
45837;DHT22;31548;51.420;-0.040;2023-06-26T08:42:54;19.90;99.90
45837;DHT22;31548;51.420;-0.040;2023-06-26T08:45:22;19.80;99.90
45837;DHT22;31548;51.420;-0.040;2023-06-26T08:47:52;19.80;99.90
45837;DHT22;31548;51.420;-0.040;2023-06-26T08:57:25;19.90;99.90
45837;DHT22;31548;51.420;-0.040;2023-06-26T08:59:53;20.20;99.90
45837;DHT22;31548;51.420;-0.040;2023-06-26T09:02:21;20.30;99.90
45837;DHT22;31548;51.420;-0.040;2023-06-26T09:04:48;20.20;99.90
45837;DHT22;31548;51.420;-0.040;2023-06-26T09:07:16;20.40;99.90
45837;DHT22;31548;51.420;-0.040;2023-06-26T09:09:44;20.60;99.90
45837;DHT22;31548;51.420;-0.040;2023-06-26T09:12:13;20.70;99.90
45837;DHT22;31548;51.420;-0.040;2023-06-26T09:14:41;20.70;99.90
45837;DHT22;31548;51.420;-0.040;2023-06-26T09:17:08;20.60;99.90
45837;DHT22;31548;51.420;-0.040;2023-06-26T09:19:37;20.50;99.90
45837;DHT22;31548;51.420;-0.040;2023-06-26T09:22:12;20.50;99.20
45837;DHT22;31548;51.420;-0.040;2023-06-26T09:24:41;20.60;99.00
45837;DHT22;31548;51.420;-0.040;2023-06-26T09:27:11;20.80;98.70
45837;DHT22;31548;51.420;-0.040;2023-06-26T09:29:38;21.00;98.60
45837;DHT22;31548;51.420;-0.040;2023-06-26T09:32:08;21.20;98.10
45837;DHT22;31548;51.420;-0.040;2023-06-26T09:34:36;21.00;98.10
45837;DHT22;31548;51.420;-0.040;2023-06-26T09:37:04;20.90;98.20
45837;DHT22;31548;51.420;-0.040;2023-06-26T09:39:32;20.80;98.00
45837;DHT22;31548;51.420;-0.040;2023-06-26T09:41:59;21.00;97.70
45837;DHT22;31548;51.420;-0.040;2023-06-26T09:44:33;21.10;97.00
45837;DHT22;31548;51.420;-0.040;2023-06-26T09:47:02;21.20;96.50
45837;DHT22;31548;51.420;-0.040;2023-06-26T09:49:31;21.10;97.10
45837;DHT22;31548;51.420;-0.040;2023-06-26T09:52:00;20.90;97.30
45837;DHT22;31548;51.420;-0.040;2023-06-26T09:54:29;21.00;97.00
45837;DHT22;31548;51.420;-0.040;2023-06-26T09:57:10;21.10;97.20
45837;DHT22;31548;51.420;-0.040;2023-06-26T09:59:38;21.10;97.00
45837;DHT22;31548;51.420;-0.040;2023-06-26T10:02:06;21.10;96.60
45837;DHT22;31548;51.420;-0.040;2023-06-26T10:04:35;21.00;96.90
45837;DHT22;31548;51.420;-0.040;2023-06-26T10:07:04;21.00;96.10
45837;DHT22;31548;51.420;-0.040;2023-06-26T10:09:35;21.10;96.30
45837;DHT22;31548;51.420;-0.040;2023-06-26T10:12:06;21.40;96.20
45837;DHT22;31548;51.420;-0.040;2023-06-26T10:14:39;21.40;95.70
45837;DHT22;31548;51.420;-0.040;2023-06-26T10:17:15;21.40;95.20
45837;DHT22;31548;51.420;-0.040;2023-06-26T10:19:44;21.60;96.00
45837;DHT22;31548;51.420;-0.040;2023-06-26T10:22:15;21.70;95.90
45837;DHT22;31548;51.420;-0.040;2023-06-26T10:24:45;21.80;94.40
45837;DHT22;31548;51.420;-0.040;2023-06-26T10:27:19;21.70;94.10
45837;DHT22;31548;51.420;-0.040;2023-06-26T10:29:56;21.40;94.10
45837;DHT22;31548;51.420;-0.040;2023-06-26T10:32:26;21.60;95.40
45837;DHT22;31548;51.420;-0.040;2023-06-26T10:34:55;21.60;94.50
45837;DHT22;31548;51.420;-0.040;2023-06-26T10:37:46;21.50;94.90
45837;DHT22;31548;51.420;-0.040;2023-06-26T10:40:28;21.70;94.30
45837;DHT22;31548;51.420;-0.040;2023-06-26T10:43:09;21.60;94.10
45837;DHT22;31548;51.420;-0.040;2023-06-26T10:45:37;21.50;94.20
45837;DHT22;31548;51.420;-0.040;2023-06-26T10:48:09;21.50;94.50
45837;DHT22;31548;51.420;-0.040;2023-06-26T10:50:37;21.40;94.60
45837;DHT22;31548;51.420;-0.040;2023-06-26T10:56:00;21.70;94.70
45837;DHT22;31548;51.420;-0.040;2023-06-26T10:58:34;22.00;93.60
45837;DHT22;31548;51.420;-0.040;2023-06-26T11:03:39;22.10;94.10
45837;DHT22;31548;51.420;-0.040;2023-06-26T11:06:11;22.10;93.50
45837;DHT22;31548;51.420;-0.040;2023-06-26T11:08:52;22.00;92.50
45837;DHT22;31548;51.420;-0.040;2023-06-26T11:14:22;22.30;92.90
45837;DHT22;31548;51.420;-0.040;2023-06-26T11:16:50;22.20;92.80
45837;DHT22;31548;51.420;-0.040;2023-06-26T11:19:19;22.30;92.60
45837;DHT22;31548;51.420;-0.040;2023-06-26T11:21:46;22.40;92.80
45837;DHT22;31548;51.420;-0.040;2023-06-26T11:24:14;22.30;93.50
45837;DHT22;31548;51.420;-0.040;2023-06-26T11:26:42;22.30;93.00
45837;DHT22;31548;51.420;-0.040;2023-06-26T11:29:10;22.40;92.60
45837;DHT22;31548;51.420;-0.040;2023-06-26T11:31:39;22.50;92.50
45837;DHT22;31548;51.420;-0.040;2023-06-26T11:34:11;22.50;92.10
45837;DHT22;31548;51.420;-0.040;2023-06-26T11:36:41;22.70;92.50
45837;DHT22;31548;51.420;-0.040;2023-06-26T11:39:10;22.80;92.20
45837;DHT22;31548;51.420;-0.040;2023-06-26T11:41:39;22.60;90.50
45837;DHT22;31548;51.420;-0.040;2023-06-26T11:44:09;22.80;90.80
45837;DHT22;31548;51.420;-0.040;2023-06-26T11:46:37;23.20;90.50
45837;DHT22;31548;51.420;-0.040;2023-06-26T11:49:06;23.40;91.00
45837;DHT22;31548;51.420;-0.040;2023-06-26T11:51:34;23.30;91.40
45837;DHT22;31548;51.420;-0.040;2023-06-26T11:54:04;23.30;90.40
45837;DHT22;31548;51.420;-0.040;2023-06-26T11:56:32;23.50;92.10
45837;DHT22;31548;51.420;-0.040;2023-06-26T12:01:38;23.40;91.00
45837;DHT22;31548;51.420;-0.040;2023-06-26T12:04:08;23.70;91.20
45837;DHT22;31548;51.420;-0.040;2023-06-26T12:06:40;23.40;91.90
45837;DHT22;31548;51.420;-0.040;2023-06-26T12:09:09;23.50;91.00
45837;DHT22;31548;51.420;-0.040;2023-06-26T12:11:40;23.50;91.10
45837;DHT22;31548;51.420;-0.040;2023-06-26T12:14:08;23.70;90.80
45837;DHT22;31548;51.420;-0.040;2023-06-26T12:16:36;23.30;90.80
45837;DHT22;31548;51.420;-0.040;2023-06-26T12:19:06;23.30;91.20
45837;DHT22;31548;51.420;-0.040;2023-06-26T12:21:46;23.00;90.70
45837;DHT22;31548;51.420;-0.040;2023-06-26T12:24:21;23.40;91.00
45837;DHT22;31548;51.420;-0.040;2023-06-26T12:26:53;23.70;90.70
45837;DHT22;31548;51.420;-0.040;2023-06-26T12:29:31;23.80;91.10
45837;DHT22;31548;51.420;-0.040;2023-06-26T12:32:00;23.80;89.60
45837;DHT22;31548;51.420;-0.040;2023-06-26T12:34:35;24.00;90.30
45837;DHT22;31548;51.420;-0.040;2023-06-26T12:37:06;24.30;90.30
45837;DHT22;31548;51.420;-0.040;2023-06-26T12:39:51;24.40;88.60
45837;DHT22;31548;51.420;-0.040;2023-06-26T12:42:19;24.50;87.20
45837;DHT22;31548;51.420;-0.040;2023-06-26T12:44:48;24.00;86.50
45837;DHT22;31548;51.420;-0.040;2023-06-26T12:47:24;24.00;87.20
45837;DHT22;31548;51.420;-0.040;2023-06-26T12:49:52;24.00;90.20
45837;DHT22;31548;51.420;-0.040;2023-06-26T12:52:20;23.80;86.60
45837;DHT22;31548;51.420;-0.040;2023-06-26T12:54:53;23.90;88.00
45837;DHT22;31548;51.420;-0.040;2023-06-26T12:57:20;23.70;86.60
45837;DHT22;31548;51.420;-0.040;2023-06-26T12:59:47;23.80;86.40
45837;DHT22;31548;51.420;-0.040;2023-06-26T13:02:15;23.50;87.00
45837;DHT22;31548;51.420;-0.040;2023-06-26T13:04:42;23.60;87.40
45837;DHT22;31548;51.420;-0.040;2023-06-26T13:07:12;23.70;87.30
45837;DHT22;31548;51.420;-0.040;2023-06-26T13:09:39;23.60;86.50
45837;DHT22;31548;51.420;-0.040;2023-06-26T13:12:08;23.50;87.80
45837;DHT22;31548;51.420;-0.040;2023-06-26T13:14:36;23.60;86.70
45837;DHT22;31548;51.420;-0.040;2023-06-26T13:17:03;23.30;87.20
45837;DHT22;31548;51.420;-0.040;2023-06-26T13:19:36;24.00;86.70
45837;DHT22;31548;51.420;-0.040;2023-06-26T13:22:03;23.90;86.90
45837;DHT22;31548;51.420;-0.040;2023-06-26T13:24:30;24.10;86.40
45837;DHT22;31548;51.420;-0.040;2023-06-26T13:26:58;24.00;87.90
45837;DHT22;31548;51.420;-0.040;2023-06-26T13:29:25;24.20;86.80
45837;DHT22;31548;51.420;-0.040;2023-06-26T13:31:53;23.80;87.70
45837;DHT22;31548;51.420;-0.040;2023-06-26T13:34:22;23.80;86.10
45837;DHT22;31548;51.420;-0.040;2023-06-26T13:36:55;23.50;88.00
45837;DHT22;31548;51.420;-0.040;2023-06-26T13:39:23;23.50;87.90
45837;DHT22;31548;51.420;-0.040;2023-06-26T13:41:50;23.60;88.50
45837;DHT22;31548;51.420;-0.040;2023-06-26T13:44:17;23.60;88.00
45837;DHT22;31548;51.420;-0.040;2023-06-26T13:47:02;23.70;87.50
45837;DHT22;31548;51.420;-0.040;2023-06-26T13:49:29;23.30;86.60
45837;DHT22;31548;51.420;-0.040;2023-06-26T13:51:56;23.60;87.30
45837;DHT22;31548;51.420;-0.040;2023-06-26T13:54:24;23.70;88.20
45837;DHT22;31548;51.420;-0.040;2023-06-26T13:56:51;23.80;87.50
45837;DHT22;31548;51.420;-0.040;2023-06-26T13:59:18;23.50;87.70
45837;DHT22;31548;51.420;-0.040;2023-06-26T14:01:48;23.60;88.00
45837;DHT22;31548;51.420;-0.040;2023-06-26T14:04:16;23.60;88.50
45837;DHT22;31548;51.420;-0.040;2023-06-26T14:06:43;23.80;88.30
45837;DHT22;31548;51.420;-0.040;2023-06-26T14:09:12;23.60;88.30
45837;DHT22;31548;51.420;-0.040;2023-06-26T14:11:40;23.60;87.90
45837;DHT22;31548;51.420;-0.040;2023-06-26T14:14:07;23.60;88.60
45837;DHT22;31548;51.420;-0.040;2023-06-26T14:16:34;23.60;88.60
45837;DHT22;31548;51.420;-0.040;2023-06-26T14:19:02;23.40;89.40
45837;DHT22;31548;51.420;-0.040;2023-06-26T14:21:29;23.20;90.40
45837;DHT22;31548;51.420;-0.040;2023-06-26T14:23:56;23.00;89.30
45837;DHT22;31548;51.420;-0.040;2023-06-26T14:26:24;22.80;89.50
45837;DHT22;31548;51.420;-0.040;2023-06-26T14:28:51;22.90;90.50
45837;DHT22;31548;51.420;-0.040;2023-06-26T14:31:18;22.90;90.50
45837;DHT22;31548;51.420;-0.040;2023-06-26T14:33:46;22.90;90.50
45837;DHT22;31548;51.420;-0.040;2023-06-26T14:36:14;22.70;90.60
45837;DHT22;31548;51.420;-0.040;2023-06-26T14:38:41;22.70;90.80
45837;DHT22;31548;51.420;-0.040;2023-06-26T14:41:09;22.60;90.70
45837;DHT22;31548;51.420;-0.040;2023-06-26T14:43:37;22.70;91.00
45837;DHT22;31548;51.420;-0.040;2023-06-26T14:46:05;22.80;90.80
45837;DHT22;31548;51.420;-0.040;2023-06-26T14:48:33;22.80;90.60
45837;DHT22;31548;51.420;-0.040;2023-06-26T14:51:00;22.80;90.60
45837;DHT22;31548;51.420;-0.040;2023-06-26T14:53:28;22.80;90.40
45837;DHT22;31548;51.420;-0.040;2023-06-26T14:55:55;22.90;90.60
45837;DHT22;31548;51.420;-0.040;2023-06-26T14:58:22;22.90;90.80
45837;DHT22;31548;51.420;-0.040;2023-06-26T15:00:50;22.80;90.70
45837;DHT22;31548;51.420;-0.040;2023-06-26T15:03:17;22.80;91.00
45837;DHT22;31548;51.420;-0.040;2023-06-26T15:05:45;22.60;90.80
45837;DHT22;31548;51.420;-0.040;2023-06-26T15:08:12;22.50;90.80
45837;DHT22;31548;51.420;-0.040;2023-06-26T15:10:39;22.60;90.80
45837;DHT22;31548;51.420;-0.040;2023-06-26T15:13:07;22.70;91.10
45837;DHT22;31548;51.420;-0.040;2023-06-26T15:15:35;22.70;90.80
45837;DHT22;31548;51.420;-0.040;2023-06-26T15:18:03;22.50;90.70
45837;DHT22;31548;51.420;-0.040;2023-06-26T15:20:32;22.40;91.10
45837;DHT22;31548;51.420;-0.040;2023-06-26T15:22:59;22.60;91.00
45837;DHT22;31548;51.420;-0.040;2023-06-26T15:25:26;22.80;90.90
45837;DHT22;31548;51.420;-0.040;2023-06-26T15:27:55;23.00;90.70
45837;DHT22;31548;51.420;-0.040;2023-06-26T15:30:22;23.10;90.50
45837;DHT22;31548;51.420;-0.040;2023-06-26T15:32:49;23.00;90.30
45837;DHT22;31548;51.420;-0.040;2023-06-26T15:35:17;22.80;90.60
45837;DHT22;31548;51.420;-0.040;2023-06-26T15:37:44;22.80;90.60
45837;DHT22;31548;51.420;-0.040;2023-06-26T15:40:12;22.80;90.80
45837;DHT22;31548;51.420;-0.040;2023-06-26T15:42:50;22.90;90.70
45837;DHT22;31548;51.420;-0.040;2023-06-26T15:45:17;23.00;90.80
45837;DHT22;31548;51.420;-0.040;2023-06-26T15:47:45;23.20;91.10
45837;DHT22;31548;51.420;-0.040;2023-06-26T15:50:12;23.60;90.30
45837;DHT22;31548;51.420;-0.040;2023-06-26T15:52:39;23.80;90.30